createdAt,value
2022-12-14T00:01:49.563Z,40.70
2022-12-14T00:04:17.575Z,36.28
2022-12-14T00:06:45.036Z,35.67
2022-12-14T00:09:12.418Z,32.40
2022-12-14T00:11:40.170Z,32.97
2022-12-14T00:14:07.593Z,32.78
2022-12-14T00:16:35.341Z,32.50
2022-12-14T00:19:05.280Z,28.30
2022-12-14T00:21:33.517Z,27.05
2022-12-14T00:24:00.941Z,26.08
2022-12-14T00:26:31.427Z,25.25
2022-12-14T00:29:00.582Z,25.77
2022-12-14T00:31:28.290Z,26.37
2022-12-14T00:33:55.968Z,25.58
2022-12-14T00:36:23.633Z,23.85
2022-12-14T00:38:51.048Z,24.58
2022-12-14T00:41:19.608Z,24.90
2022-12-14T00:43:49.743Z,23.87
2022-12-14T00:46:17.974Z,24.55
2022-12-14T00:48:45.895Z,24.15
2022-12-14T00:51:15.090Z,24.85
2022-12-14T00:53:44.601Z,23.75
2022-12-14T00:56:12.436Z,22.65
2022-12-14T00:58:39.799Z,24.85
2022-12-14T01:01:12.516Z,25.02
2022-12-14T01:03:40.532Z,24.12
2022-12-14T01:06:17.124Z,25.02
2022-12-14T01:08:44.826Z,24.73
2022-12-14T01:11:12.881Z,24.83
2022-12-14T01:13:41.338Z,23.95
2022-12-14T01:16:11.680Z,23.60
2022-12-14T01:18:40.110Z,25.35
2022-12-14T01:21:11.495Z,25.50
2022-12-14T01:23:39.417Z,25.50
2022-12-14T01:26:07.008Z,24.70
2022-12-14T01:28:35.112Z,25.12
2022-12-14T01:31:23.725Z,24.35
2022-12-14T01:33:51.147Z,25.60
2022-12-14T01:36:25.223Z,25.00
2022-12-14T01:38:58.323Z,26.17
2022-12-14T01:41:31.618Z,25.52
2022-12-14T01:44:09.351Z,24.87
2022-12-14T01:46:41.125Z,24.58
2022-12-14T01:49:33.017Z,24.70
2022-12-14T01:52:21.574Z,25.67
2022-12-14T01:54:56.573Z,26.00
2022-12-14T01:57:47.436Z,23.80
2022-12-14T02:00:15.270Z,24.08
2022-12-14T02:02:48.452Z,24.12
2022-12-14T02:05:17.290Z,25.17
2022-12-14T02:07:49.171Z,24.25
2022-12-14T02:10:16.733Z,24.27
2022-12-14T02:12:48.395Z,24.48
2022-12-14T02:15:16.460Z,25.00
2022-12-14T02:17:45.468Z,25.08
2022-12-14T02:20:13.885Z,24.87
2022-12-14T02:22:54.056Z,25.25
2022-12-14T02:25:33.887Z,23.58
2022-12-14T02:28:29.487Z,25.67
2022-12-14T02:31:26.345Z,24.00
2022-12-14T02:33:58.468Z,25.83
2022-12-14T02:36:39.070Z,24.87
2022-12-14T02:39:34.665Z,23.12
2022-12-14T02:42:13.648Z,25.25
2022-12-14T02:44:44.350Z,23.10
2022-12-14T02:47:26.231Z,23.90
2022-12-14T02:49:59.846Z,22.80
2022-12-14T02:52:52.287Z,21.12
2022-12-14T02:55:28.267Z,22.37
2022-12-14T02:58:01.403Z,23.75
2022-12-14T03:00:32.332Z,22.87
2022-12-14T03:03:00.837Z,20.62
2022-12-14T03:05:28.656Z,20.62
2022-12-14T03:07:58.172Z,19.00
2022-12-14T03:10:44.221Z,20.70
2022-12-14T03:13:31.432Z,22.40
2022-12-14T03:16:03.140Z,20.77
2022-12-14T03:18:36.977Z,21.12
2022-12-14T03:21:06.524Z,20.05
2022-12-14T03:23:40.800Z,19.87
2022-12-14T03:26:19.440Z,20.13
2022-12-14T03:28:50.973Z,20.85
2022-12-14T03:31:35.113Z,19.08
2022-12-14T03:34:05.329Z,19.20
2022-12-14T03:36:54.609Z,20.12
2022-12-14T03:39:27.637Z,19.35
2022-12-14T03:42:17.920Z,18.35
2022-12-14T03:44:54.384Z,19.58
2022-12-14T03:47:52.623Z,19.35
2022-12-14T03:50:51.915Z,21.20
2022-12-14T03:53:25.363Z,21.98
2022-12-14T03:56:10.953Z,20.87
2022-12-14T04:02:04.071Z,26.83
2022-12-14T04:04:34.431Z,23.25
2022-12-14T04:07:15.215Z,23.73
2022-12-14T04:09:49.075Z,22.52
2022-12-14T04:12:38.548Z,22.50
2022-12-14T04:15:32.875Z,20.80
2022-12-14T04:18:22.928Z,23.00
2022-12-14T04:20:55.359Z,21.00
2022-12-14T04:23:49.947Z,22.23
2022-12-14T04:26:19.761Z,20.35
2022-12-14T04:29:27.249Z,22.92
2022-12-14T04:32:04.535Z,21.87
2022-12-14T04:34:33.537Z,21.45
2022-12-14T04:37:04.577Z,21.17
2022-12-14T04:39:53.651Z,23.02
2022-12-14T04:42:31.432Z,24.92
2022-12-14T04:45:06.559Z,22.75
2022-12-14T04:47:37.083Z,21.37
2022-12-14T04:50:27.286Z,22.65
2022-12-14T04:52:59.718Z,23.58
2022-12-14T04:55:30.145Z,24.48
2022-12-14T04:58:15.113Z,22.45
2022-12-14T05:00:51.780Z,20.40
2022-12-14T05:03:32.365Z,20.75
2022-12-14T05:06:09.569Z,22.35
2022-12-14T05:09:02.273Z,21.25
2022-12-14T05:11:53.690Z,20.70
2022-12-14T05:14:27.077Z,20.12
2022-12-14T05:16:54.544Z,19.90
2022-12-14T05:19:26.380Z,20.85
2022-12-14T05:21:54.428Z,20.37
2022-12-14T05:24:22.150Z,21.12
2022-12-14T05:26:49.524Z,20.15
2022-12-14T05:29:17.806Z,20.95
2022-12-14T05:31:49.457Z,20.52
2022-12-14T05:34:17.685Z,18.08
2022-12-14T05:36:45.327Z,19.23
2022-12-14T05:39:13.270Z,19.75
2022-12-14T05:41:40.727Z,18.60
2022-12-14T05:44:08.654Z,17.27
2022-12-14T05:46:36.049Z,17.58
2022-12-14T05:49:03.582Z,18.73
2022-12-14T05:51:31.232Z,17.50
2022-12-14T05:53:59.054Z,17.20
2022-12-14T05:56:26.534Z,18.55
2022-12-14T05:58:54.472Z,17.40
2022-12-14T06:01:21.992Z,16.08
2022-12-14T06:03:53.497Z,18.33
2022-12-14T06:06:21.343Z,17.37
2022-12-14T06:08:48.902Z,16.40
2022-12-14T06:11:19.199Z,16.62
2022-12-14T06:13:47.315Z,16.05
2022-12-14T06:16:23.093Z,16.58
2022-12-14T06:18:56.104Z,16.10
2022-12-14T06:21:27.470Z,17.30
2022-12-14T06:23:56.057Z,18.17
2022-12-14T06:26:24.112Z,17.73
2022-12-14T06:28:51.573Z,16.42
2022-12-14T06:31:21.781Z,16.48
2022-12-14T06:33:49.931Z,16.58
2022-12-14T06:36:21.252Z,17.27
2022-12-14T06:38:50.087Z,17.55
2022-12-14T06:41:17.764Z,15.32
2022-12-14T06:43:45.259Z,15.65
2022-12-14T06:46:19.462Z,15.18
2022-12-14T06:48:54.843Z,16.05
2022-12-14T06:51:23.776Z,18.20
2022-12-14T06:53:52.179Z,15.80
2022-12-14T06:56:20.577Z,15.68
2022-12-14T06:58:48.356Z,15.18
2022-12-14T07:01:18.541Z,15.20
2022-12-14T07:03:54.820Z,15.85
2022-12-14T07:06:23.923Z,15.48
2022-12-14T07:08:56.356Z,14.43
2022-12-14T07:11:25.185Z,14.80
2022-12-14T07:13:53.545Z,14.70
2022-12-14T07:16:23.712Z,14.52
2022-12-14T07:18:52.040Z,15.18
2022-12-14T07:21:20.655Z,14.43
2022-12-14T07:23:48.749Z,16.17
2022-12-14T07:26:19.864Z,15.38
2022-12-14T07:28:47.625Z,15.40
2022-12-14T07:31:17.503Z,13.68
2022-12-14T07:33:45.731Z,15.50
2022-12-14T07:36:15.920Z,16.30
2022-12-14T07:38:44.585Z,15.57
2022-12-14T07:41:20.399Z,15.35
2022-12-14T07:43:49.923Z,15.40
2022-12-14T07:46:20.602Z,16.50
2022-12-14T07:48:50.550Z,16.10
2022-12-14T07:51:20.671Z,16.23
2022-12-14T07:53:48.885Z,16.95
2022-12-14T07:56:18.864Z,16.98
2022-12-14T07:58:46.807Z,18.33
2022-12-14T08:01:19.862Z,16.42
2022-12-14T08:03:59.926Z,16.73
2022-12-14T08:06:29.381Z,16.73
2022-12-14T08:08:57.685Z,15.55
2022-12-14T08:11:25.437Z,17.23
2022-12-14T08:13:56.782Z,16.48
2022-12-14T08:16:25.556Z,17.08
2022-12-14T08:18:54.419Z,15.40
2022-12-14T08:21:23.118Z,17.08
2022-12-14T08:23:51.529Z,17.50
2022-12-14T08:26:19.441Z,17.80
2022-12-14T08:28:47.671Z,17.42
2022-12-14T08:31:20.515Z,16.10
2022-12-14T08:33:48.851Z,16.30
2022-12-14T08:36:22.361Z,19.25
2022-12-14T08:38:57.958Z,18.62
2022-12-14T08:41:26.734Z,17.17
2022-12-14T08:43:56.857Z,18.33
2022-12-14T08:46:25.308Z,18.58
2022-12-14T08:48:55.003Z,15.50
2022-12-14T08:51:24.241Z,18.73
2022-12-14T08:53:52.393Z,16.73
2022-12-14T08:56:25.548Z,17.27
2022-12-14T08:58:53.533Z,17.17
2022-12-14T09:01:32.046Z,18.05
2022-12-14T09:04:08.389Z,18.85
2022-12-14T09:06:38.816Z,16.48
2022-12-14T09:09:13.308Z,18.23
2022-12-14T09:11:44.617Z,16.70
2022-12-14T09:14:12.088Z,16.37
2022-12-14T09:16:40.354Z,16.40
2022-12-14T09:19:08.236Z,16.77
2022-12-14T09:21:35.639Z,14.95
2022-12-14T09:24:03.159Z,19.35
2022-12-14T09:26:30.835Z,15.35
2022-12-14T09:28:58.267Z,17.98
2022-12-14T09:31:26.811Z,14.18
2022-12-14T09:33:55.125Z,16.27
2022-12-14T09:36:25.378Z,15.43
2022-12-14T09:38:55.369Z,16.42
2022-12-14T09:41:30.244Z,14.27
2022-12-14T09:44:25.365Z,14.57
2022-12-14T09:47:11.178Z,14.38
2022-12-14T09:49:54.828Z,13.90
2022-12-14T09:52:46.577Z,15.23
2022-12-14T09:55:45.695Z,14.90
2022-12-14T09:58:18.645Z,14.35
2022-12-14T10:01:05.579Z,15.05
2022-12-14T10:03:59.325Z,13.55
2022-12-14T10:06:39.563Z,14.90
2022-12-14T10:09:10.221Z,13.55
2022-12-14T10:11:55.822Z,15.55
2022-12-14T10:14:44.567Z,16.45
2022-12-14T10:17:17.846Z,14.60
2022-12-14T10:19:56.241Z,14.68
2022-12-14T10:22:30.647Z,14.68
2022-12-14T10:27:34.168Z,14.55
2022-12-14T10:30:17.454Z,13.50
2022-12-14T10:32:49.296Z,14.70
2022-12-14T10:35:27.431Z,14.90
2022-12-14T10:38:12.485Z,14.65
2022-12-14T10:43:50.823Z,14.18
2022-12-14T10:46:23.752Z,14.23
2022-12-14T10:49:10.868Z,14.43
2022-12-14T10:51:48.992Z,14.43
2022-12-14T10:54:27.246Z,14.57
2022-12-14T10:56:55.349Z,13.77
2022-12-14T10:59:25.368Z,13.30
2022-12-14T11:01:59.304Z,14.80
2022-12-14T11:04:33.084Z,14.80
2022-12-14T11:07:03.813Z,13.68
2022-12-14T11:09:32.007Z,12.90
2022-12-14T11:12:05.476Z,14.48
2022-12-14T11:14:34.529Z,14.27
2022-12-14T11:17:02.082Z,13.62
2022-12-14T11:19:30.048Z,13.50
2022-12-14T11:22:18.675Z,12.27
2022-12-14T11:24:49.578Z,13.57
2022-12-14T11:27:21.026Z,14.18
2022-12-14T11:29:49.430Z,12.93
2022-12-14T11:32:24.743Z,11.70
2022-12-14T11:34:55.507Z,13.48
2022-12-14T11:37:26.323Z,14.68
2022-12-14T11:39:59.385Z,13.88
2022-12-14T11:42:27.368Z,16.15
2022-12-14T11:44:55.087Z,14.90
2022-12-14T11:47:24.080Z,17.37
2022-12-14T11:49:54.473Z,13.98
2022-12-14T11:52:23.272Z,13.93
2022-12-14T11:54:54.329Z,14.70
2022-12-14T11:57:48.174Z,14.27
2022-12-14T12:00:25.732Z,13.45
2022-12-14T12:03:06.661Z,13.57
2022-12-14T12:05:39.617Z,15.30
2022-12-14T12:08:19.219Z,14.57
2022-12-14T12:10:50.115Z,14.35
2022-12-14T12:13:20.867Z,14.02
2022-12-14T12:15:51.248Z,13.00
2022-12-14T12:18:26.540Z,13.55
2022-12-14T12:21:02.168Z,13.62
2022-12-14T12:23:40.892Z,13.80
2022-12-14T12:26:25.067Z,14.35
2022-12-14T12:29:02.376Z,14.43
2022-12-14T12:31:34.862Z,13.85
2022-12-14T12:34:06.392Z,12.68
2022-12-14T12:36:33.787Z,13.48
2022-12-14T12:39:05.905Z,13.68
2022-12-14T12:41:40.568Z,13.35
2022-12-14T12:44:35.855Z,13.55
2022-12-14T12:47:31.203Z,13.10
2022-12-14T12:50:06.563Z,13.50
2022-12-14T12:52:38.585Z,13.02
2022-12-14T12:55:15.184Z,14.10
2022-12-14T12:57:46.225Z,12.48
2022-12-14T13:00:17.362Z,13.93
2022-12-14T13:02:55.398Z,13.00
2022-12-14T13:08:33.811Z,13.73
2022-12-14T13:14:15.252Z,14.07
2022-12-14T13:16:43.197Z,12.90
2022-12-14T13:22:31.515Z,13.55
2022-12-14T13:25:18.248Z,14.93
2022-12-14T13:28:01.184Z,13.40
2022-12-14T13:30:39.778Z,13.07
2022-12-14T13:33:28.702Z,20.37
2022-12-14T13:36:21.212Z,15.85
2022-12-14T13:39:19.388Z,15.50
2022-12-14T13:42:05.771Z,15.18
2022-12-14T13:44:46.491Z,14.13
2022-12-14T13:47:21.821Z,14.60
2022-12-14T13:50:26.712Z,14.80
2022-12-14T13:52:45.079Z,14.48
2022-12-14T13:55:28.989Z,16.75
2022-12-14T13:58:15.597Z,15.13
2022-12-14T14:00:46.576Z,15.00
2022-12-14T14:03:36.475Z,14.40
2022-12-14T14:06:13.037Z,14.57
2022-12-14T14:08:42.800Z,17.48
2022-12-14T14:11:38.638Z,13.60
2022-12-14T14:14:12.413Z,14.02
2022-12-14T14:16:44.994Z,15.50
2022-12-14T14:19:24.108Z,14.20
2022-12-14T14:22:26.008Z,13.60
2022-12-14T14:25:34.907Z,13.30
2022-12-14T14:28:03.961Z,13.88
2022-12-14T14:30:36.177Z,13.48
2022-12-14T14:33:43.107Z,14.80
2022-12-14T14:35:51.776Z,14.13
2022-12-14T14:38:31.360Z,13.65
2022-12-14T14:41:17.680Z,13.20
2022-12-14T14:43:54.467Z,14.45
2022-12-14T14:46:34.149Z,14.77
2022-12-14T14:49:01.635Z,14.63
2022-12-14T14:51:31.027Z,14.70
2022-12-14T14:54:46.135Z,15.13
2022-12-14T14:57:36.059Z,15.48
2022-12-14T15:00:05.134Z,14.55
2022-12-14T15:02:40.134Z,15.00
2022-12-14T15:08:32.726Z,15.48
2022-12-14T15:11:04.827Z,15.88
2022-12-14T15:13:44.185Z,16.77
2022-12-14T15:16:41.228Z,16.70
2022-12-14T15:19:25.642Z,16.23
2022-12-14T15:22:13.777Z,18.30
2022-12-14T15:24:43.544Z,17.00
2022-12-14T15:27:26.416Z,17.00
2022-12-14T15:30:12.439Z,16.77
2022-12-14T15:32:47.448Z,16.40
2022-12-14T15:35:18.079Z,16.87
2022-12-14T15:37:58.024Z,16.92
2022-12-14T15:40:32.316Z,16.52
2022-12-14T15:43:16.117Z,16.45
2022-12-14T15:45:46.188Z,17.17
2022-12-14T15:48:27.690Z,18.00
2022-12-14T15:51:03.043Z,16.87
2022-12-14T15:53:34.420Z,17.23
2022-12-14T15:56:11.825Z,16.35
2022-12-14T15:58:40.877Z,18.00
2022-12-14T16:01:24.906Z,16.62
2022-12-14T16:03:54.686Z,20.52
2022-12-14T16:06:23.572Z,17.48
2022-12-14T16:09:04.246Z,16.98
2022-12-14T16:11:36.022Z,17.83
2022-12-14T16:14:09.817Z,17.42
2022-12-14T16:16:37.669Z,16.10
2022-12-14T16:19:25.858Z,15.57
2022-12-14T16:22:10.139Z,15.10
2022-12-14T16:24:38.510Z,16.20
2022-12-14T16:27:17.900Z,15.15
2022-12-14T16:30:16.911Z,17.00
2022-12-14T16:32:49.838Z,16.55
2022-12-14T16:35:20.134Z,16.17
2022-12-14T16:37:51.285Z,17.65
2022-12-14T16:40:33.784Z,18.23
2022-12-14T16:43:02.348Z,17.35
2022-12-14T16:45:36.120Z,16.40
2022-12-14T16:48:09.147Z,17.02
2022-12-14T16:53:29.579Z,15.38
2022-12-14T16:56:19.620Z,18.27
2022-12-14T16:59:03.619Z,17.50
2022-12-14T17:01:42.044Z,17.77
2022-12-14T17:04:11.523Z,16.87
2022-12-14T17:06:54.298Z,16.90
2022-12-14T17:09:24.981Z,17.08
2022-12-14T17:11:54.632Z,16.52
2022-12-14T17:14:23.924Z,16.80
2022-12-14T17:17:00.653Z,16.52
2022-12-14T17:19:34.722Z,16.60
2022-12-14T17:22:04.432Z,16.75
2022-12-14T17:24:33.394Z,16.65
2022-12-14T17:27:02.400Z,15.75
2022-12-14T17:29:31.272Z,18.40
2022-12-14T17:32:02.851Z,17.70
2022-12-14T17:34:31.049Z,17.70
2022-12-14T17:37:03.239Z,17.62
2022-12-14T17:39:35.715Z,17.20
2022-12-14T17:42:06.470Z,16.83
2022-12-14T17:44:34.985Z,15.63
2022-12-14T17:47:04.015Z,17.80
2022-12-14T17:49:36.396Z,15.85
2022-12-14T17:52:07.735Z,15.88
2022-12-14T17:54:36.018Z,16.45
2022-12-14T17:57:07.394Z,15.93
2022-12-14T17:59:35.316Z,17.08
2022-12-14T18:02:03.135Z,15.98
2022-12-14T18:04:34.674Z,16.23
2022-12-14T18:07:03.731Z,16.67
2022-12-14T18:09:32.350Z,16.37
2022-12-14T18:12:22.601Z,16.70
2022-12-14T18:14:52.446Z,16.85
2022-12-14T18:17:20.489Z,18.05
2022-12-14T18:19:50.227Z,17.60
2022-12-14T18:22:19.106Z,17.77
2022-12-14T18:24:49.152Z,16.58
2022-12-14T18:27:19.200Z,16.27
2022-12-14T18:29:47.706Z,16.87
2022-12-14T18:32:16.610Z,15.77
2022-12-14T18:34:46.814Z,15.57
2022-12-14T18:37:18.710Z,18.05
2022-12-14T18:39:51.360Z,15.77
2022-12-14T18:42:22.620Z,15.43
2022-12-14T18:44:53.469Z,16.30
2022-12-14T18:47:41.052Z,15.88
2022-12-14T18:50:14.811Z,14.98
2022-12-14T18:52:45.401Z,14.85
2022-12-14T18:55:18.913Z,14.70
2022-12-14T18:57:49.495Z,15.75
2022-12-14T19:00:21.215Z,15.00
2022-12-14T19:02:50.526Z,14.63
2022-12-14T19:05:26.109Z,15.82
2022-12-14T19:08:00.454Z,17.40
2022-12-14T19:10:31.789Z,16.25
2022-12-14T19:13:01.277Z,16.92
2022-12-14T19:15:33.399Z,17.35
2022-12-14T19:18:05.337Z,16.50
2022-12-14T19:20:34.653Z,15.98
2022-12-14T19:23:05.593Z,25.15
2022-12-14T19:25:35.296Z,16.30
2022-12-14T19:30:58.653Z,17.92
2022-12-14T19:33:30.521Z,17.98
2022-12-14T19:36:00.925Z,16.45
2022-12-14T19:38:32.384Z,16.60
2022-12-14T19:41:04.691Z,17.87
2022-12-14T19:43:35.063Z,16.23
2022-12-14T19:46:14.831Z,16.20
2022-12-14T19:48:45.285Z,16.17
2022-12-14T19:51:15.883Z,16.40
2022-12-14T19:53:48.849Z,16.62
2022-12-14T19:56:19.281Z,15.80
2022-12-14T19:58:54.130Z,16.60
2022-12-14T20:01:40.727Z,16.85
2022-12-14T20:04:20.233Z,16.83
2022-12-14T20:06:52.297Z,16.00
2022-12-14T20:09:25.179Z,16.52
2022-12-14T20:11:54.239Z,16.12
2022-12-14T20:14:23.757Z,16.98
2022-12-14T20:16:53.078Z,16.98
2022-12-14T20:19:25.801Z,14.73
2022-12-14T20:21:55.200Z,16.70
2022-12-14T20:24:23.719Z,15.93
2022-12-14T20:26:55.041Z,15.30
2022-12-14T20:29:25.031Z,16.05
2022-12-14T20:31:55.870Z,15.20
2022-12-14T20:34:29.672Z,15.68
2022-12-14T20:36:59.511Z,17.17
2022-12-14T20:39:28.893Z,15.45
2022-12-14T20:41:58.234Z,15.30
2022-12-14T20:44:27.033Z,15.90
2022-12-14T20:46:57.313Z,16.45
2022-12-14T20:49:31.594Z,16.65
2022-12-14T20:52:00.672Z,15.20
2022-12-14T20:54:29.982Z,15.27
2022-12-14T20:57:01.177Z,15.73
2022-12-14T20:59:30.182Z,16.58
2022-12-14T21:01:59.074Z,17.05
2022-12-14T21:04:29.861Z,16.60
2022-12-14T21:06:58.552Z,16.80
2022-12-14T21:09:27.015Z,15.27
2022-12-14T21:12:13.641Z,15.52
2022-12-14T21:14:48.117Z,17.17
2022-12-14T21:17:16.657Z,16.55
2022-12-14T21:19:44.803Z,15.60
2022-12-14T21:22:16.749Z,17.05
2022-12-14T21:25:03.134Z,16.33
2022-12-14T21:27:33.463Z,15.82
2022-12-14T21:30:01.880Z,16.75
2022-12-14T21:32:31.192Z,16.42
2022-12-14T21:34:58.680Z,16.98
2022-12-14T21:37:27.639Z,17.35
2022-12-14T21:39:55.899Z,17.95
2022-12-14T21:42:24.434Z,23.73
2022-12-14T21:44:52.963Z,17.90
2022-12-14T21:47:28.381Z,18.25
2022-12-14T21:49:56.459Z,19.02
2022-12-14T21:52:26.327Z,18.52
2022-12-14T21:54:53.745Z,20.12
2022-12-14T21:57:42.031Z,29.20
2022-12-14T22:00:10.547Z,25.05
2022-12-14T22:02:39.720Z,18.98
2022-12-14T22:05:07.930Z,19.17
2022-12-14T22:07:35.289Z,18.75
2022-12-14T22:10:03.018Z,19.30
2022-12-14T22:12:30.646Z,18.98
2022-12-14T22:14:58.031Z,20.02
2022-12-14T22:17:25.444Z,20.40
2022-12-14T22:19:55.069Z,18.05
2022-12-14T22:22:22.800Z,18.83
2022-12-14T22:24:51.367Z,18.80
2022-12-14T22:27:19.855Z,18.67
2022-12-14T22:29:47.293Z,20.73
2022-12-14T22:32:15.605Z,18.80
2022-12-14T22:34:43.407Z,19.87
2022-12-14T22:37:14.562Z,19.95
2022-12-14T22:39:42.027Z,20.37
2022-12-14T22:42:10.530Z,18.48
2022-12-14T22:44:38.301Z,18.30
2022-12-14T22:47:05.760Z,19.23
2022-12-14T22:49:33.392Z,18.30
2022-12-14T22:52:00.765Z,18.23
2022-12-14T22:54:28.143Z,18.73
2022-12-14T22:57:13.852Z,17.87
2022-12-14T22:59:45.283Z,19.12
2022-12-14T23:02:13.107Z,19.12
2022-12-14T23:04:40.719Z,19.10
2022-12-14T23:07:08.068Z,18.42
2022-12-14T23:09:54.426Z,19.45
2022-12-14T23:12:40.778Z,18.62
2022-12-14T23:15:27.239Z,18.75
2022-12-14T23:18:19.171Z,17.80
2022-12-14T23:21:05.531Z,19.02
2022-12-14T23:23:51.326Z,18.15
2022-12-14T23:26:37.777Z,18.83
2022-12-14T23:29:23.603Z,18.58
2022-12-14T23:32:09.540Z,18.20
2022-12-14T23:34:55.692Z,17.70
2022-12-14T23:37:42.072Z,18.50
2022-12-14T23:40:28.631Z,18.48
2022-12-14T23:43:14.812Z,18.80
2022-12-14T23:46:01.791Z,18.20
2022-12-14T23:48:47.906Z,19.80
2022-12-14T23:51:34.021Z,19.50
2022-12-14T23:54:20.295Z,20.77
2022-12-14T23:57:06.350Z,19.02
2022-12-14T23:59:54.802Z,18.75
